Terminal Aerodrome Forecast
Issued by NWS Cleveland, OH

Home | Current Version | Previous Version | Text Only | Print | Product List | Glossary On
Versions: 1 2 3 4 5 6 7 8 9 10 11 12 13 14 15 16 17 18 19
000
FTUS41 KCLE 281100
TAFTOL
TAF
KTOL 281133Z 2812/2912 VRB03KT P6SM SKC
     FM281400 34006KT P6SM SCT030
     FM281700 36006KT P6SM BKN050
     FM282300 VRB03KT P6SM SCT060=

USA.gov is the U.S. government's official web portal to all federal, state and local government web resources and services.